Time;durP1;ratioP1;P1;durP2;ratioP2;P2;SDS_P1;SDS_P2;PMS_P1;PMS_P2;Temp;Humidity;BMP_temperature;BMP_pressure;BME280_temperature;BME280_humidity;BME280_pressure;Samples;Min_cycle;Max_cycle;Signal;HPM_P1;HPM_P2
2022/11/24 00:01:30;;;;;;;17.90;3.17;;;8.80;99.90;;;;;;5072125;28;20445;-56
2022/11/24 00:03:58;;;;;;;15.32;2.95;;;8.90;99.90;;;;;;5092995;28;20476;-57
2022/11/24 00:06:25;;;;;;;16.52;3.03;;;8.90;99.90;;;;;;5090491;28;20046;-55
2022/11/24 00:08:51;;;;;;;15.32;3.05;;;8.90;99.90;;;;;;5090393;28;20016;-56
2022/11/24 00:11:19;;;;;;;15.23;2.70;;;9.00;99.90;;;;;;5091914;28;20031;-57
2022/11/24 00:13:44;;;;;;;18.67;3.63;;;9.00;99.90;;;;;;5090198;28;20077;-56
2022/11/24 00:16:14;;;;;;;23.80;4.85;;;9.00;99.90;;;;;;5095236;28;20469;-56
2022/11/24 00:18:42;;;;;;;13.60;2.75;;;9.00;99.90;;;;;;5090127;28;20059;-57
2022/11/24 00:21:08;;;;;;;21.42;3.47;;;9.00;99.90;;;;;;5089798;28;20431;-55
2022/11/24 00:23:34;;;;;;;10.45;2.13;;;9.00;99.90;;;;;;5090241;28;20050;-57
2022/11/24 00:26:05;;;;;;;14.00;2.88;;;9.00;99.90;;;;;;5089959;27;20485;-55
2022/11/24 00:28:32;;;;;;;13.57;2.80;;;9.00;99.90;;;;;;5089926;28;20062;-56
2022/11/24 00:30:58;;;;;;;14.70;2.70;;;9.00;99.90;;;;;;5092569;28;20020;-56
2022/11/24 00:33:24;;;;;;;19.60;3.70;;;8.90;99.90;;;;;;5090102;28;20495;-55
2022/11/24 00:35:57;;;;;;;17.10;3.28;;;8.90;99.90;;;;;;5071562;28;20013;-57
2022/11/24 00:38:23;;;;;;;19.92;2.78;;;8.90;99.90;;;;;;5089562;28;20526;-56
2022/11/24 00:40:49;;;;;;;15.23;3.13;;;8.90;99.90;;;;;;5091420;28;20104;-56
2022/11/24 00:43:15;;;;;;;12.80;2.40;;;8.80;99.90;;;;;;5093696;28;20020;-55
2022/11/24 00:45:41;;;;;;;14.02;2.35;;;8.80;99.90;;;;;;5091469;28;20028;-57
2022/11/24 00:48:06;;;;;;;15.52;3.03;;;8.80;99.90;;;;;;5092584;28;20024;-56
2022/11/24 00:50:32;;;;;;;18.10;2.72;;;8.80;99.90;;;;;;5092261;28;20501;-56
2022/11/24 00:52:58;;;;;;;18.02;3.92;;;8.70;99.90;;;;;;5092096;28;20085;-56
2022/11/24 00:55:23;;;;;;;11.85;2.70;;;8.70;99.90;;;;;;5089706;28;20074;-57
2022/11/24 00:57:49;;;;;;;18.30;3.80;;;8.70;99.90;;;;;;5076643;28;20540;-56
2022/11/24 01:00:15;;;;;;;15.95;2.65;;;8.60;99.90;;;;;;5089609;28;20024;-57
2022/11/24 01:02:41;;;;;;;15.38;2.70;;;8.60;99.90;;;;;;5091462;28;20411;-56
2022/11/24 01:05:07;;;;;;;12.07;3.00;;;8.60;99.90;;;;;;5090649;28;20554;-57
2022/11/24 01:07:32;;;;;;;17.77;2.63;;;8.60;99.90;;;;;;5089313;28;20024;-57
2022/11/24 01:09:58;;;;;;;20.80;2.88;;;8.60;99.90;;;;;;5092180;28;20393;-57
2022/11/24 01:12:24;;;;;;;10.68;2.45;;;8.50;99.90;;;;;;5091878;28;20028;-60
2022/11/24 01:14:49;;;;;;;13.32;2.47;;;8.50;99.90;;;;;;5089222;28;20069;-57
2022/11/24 01:17:15;;;;;;;12.32;2.67;;;8.60;99.90;;;;;;5081605;28;20482;-57
2022/11/24 01:19:40;;;;;;;13.05;2.45;;;8.60;99.90;;;;;;5089072;28;20078;-54
2022/11/24 01:22:06;;;;;;;20.00;2.42;;;8.60;99.90;;;;;;5088928;28;20034;-57
2022/11/24 01:24:31;;;;;;;16.08;2.90;;;8.60;99.90;;;;;;5092026;28;20030;-57
2022/11/24 01:26:57;;;;;;;21.15;4.10;;;8.60;99.90;;;;;;5094242;28;20024;-58
2022/11/24 01:29:23;;;;;;;13.77;2.80;;;8.60;99.90;;;;;;5091947;28;20069;-57
2022/11/24 01:31:48;;;;;;;10.88;3.30;;;8.60;99.90;;;;;;5076057;28;20408;-56
2022/11/24 01:34:14;;;;;;;16.30;3.17;;;8.60;99.90;;;;;;5088379;28;20078;-57
2022/11/24 01:36:39;;;;;;;14.15;2.80;;;8.60;99.90;;;;;;5120532;27;20842;-57
2022/11/24 01:39:05;;;;;;;14.93;2.60;;;8.60;99.90;;;;;;5092128;28;20105;-55
2022/11/24 01:41:34;;;;;;;10.65;2.45;;;8.60;99.90;;;;;;5089662;28;20516;-56
2022/11/24 01:44:00;;;;;;;11.65;2.83;;;8.60;99.90;;;;;;5089605;28;20034;-57
2022/11/24 01:46:47;;;;;;;13.52;2.75;;;8.50;99.90;;;;;;5088786;28;20023;-56
2022/11/24 01:49:12;;;;;;;19.63;2.78;;;8.60;99.90;;;;;;5088915;28;20024;-57
2022/11/24 01:51:52;;;;;;;16.08;2.60;;;8.50;99.90;;;;;;5074965;28;20016;-56
2022/11/24 01:54:29;;;;;;;12.60;2.25;;;8.50;99.90;;;;;;5089140;28;20127;-57
2022/11/24 01:57:00;;;;;;;9.55;2.35;;;8.40;99.90;;;;;;5089017;28;20024;-56
2022/11/24 01:59:26;;;;;;;14.23;2.50;;;8.40;99.90;;;;;;5088095;28;20032;-57
2022/11/24 02:01:53;;;;;;;15.85;2.55;;;8.40;99.90;;;;;;5114879;28;20023;-57
2022/11/24 02:04:23;;;;;;;14.95;2.83;;;8.40;99.90;;;;;;5115426;28;20098;-57
2022/11/24 02:06:49;;;;;;;13.20;2.25;;;8.40;99.90;;;;;;5092461;28;20422;-57
2022/11/24 02:09:32;;;;;;;16.27;3.20;;;8.40;99.90;;;;;;5090174;28;20035;-54
2022/11/24 02:11:59;;;;;;;19.90;3.05;;;8.40;99.90;;;;;;5088546;28;20012;-56
2022/11/24 02:14:26;;;;;;;11.85;2.10;;;8.40;99.90;;;;;;5075274;28;20490;-57
2022/11/24 02:16:52;;;;;;;11.02;2.80;;;8.40;99.90;;;;;;5088546;28;20022;-55
2022/11/24 02:19:34;;;;;;;11.13;1.95;;;8.40;99.90;;;;;;5088537;28;20392;-55
2022/11/24 02:22:01;;;;;;;12.07;2.05;;;8.50;99.90;;;;;;5088323;28;20032;-57
2022/11/24 02:24:50;;;;;;;16.05;2.05;;;8.50;99.90;;;;;;5088546;28;20024;-56
2022/11/24 02:27:16;;;;;;;10.45;2.08;;;8.60;99.90;;;;;;5070451;28;20023;-57
2022/11/24 02:29:41;;;;;;;16.70;3.72;;;8.50;99.90;;;;;;5088221;28;20046;-57
2022/11/24 02:32:08;;;;;;;16.13;3.05;;;8.50;99.90;;;;;;5091126;28;20059;-56
2022/11/24 02:34:34;;;;;;;10.55;2.33;;;8.50;99.90;;;;;;5070015;28;20027;-55
2022/11/24 02:36:59;;;;;;;12.77;2.58;;;8.60;99.90;;;;;;5075510;28;20401;-57
2022/11/24 02:39:25;;;;;;;12.43;2.72;;;8.50;99.90;;;;;;5091027;28;20061;-58
2022/11/24 02:42:01;;;;;;;13.07;2.63;;;8.60;99.90;;;;;;5088614;28;20020;-56
2022/11/24 02:44:31;;;;;;;15.68;3.28;;;8.50;99.90;;;;;;5094047;28;20024;-54
2022/11/24 02:47:05;;;;;;;15.32;2.70;;;8.50;99.90;;;;;;5093236;28;20031;-57
2022/11/24 02:49:31;;;;;;;13.40;2.78;;;8.50;99.90;;;;;;5094594;28;20097;-57
2022/11/24 02:51:57;;;;;;;16.98;3.60;;;8.50;99.90;;;;;;5096456;28;20480;-56
2022/11/24 02:54:22;;;;;;;16.15;2.58;;;8.50;99.90;;;;;;5091547;28;20055;-57
2022/11/24 02:56:48;;;;;;;11.50;2.50;;;8.50;99.90;;;;;;5094766;28;20032;-56
2022/11/24 02:59:13;;;;;;;14.05;2.50;;;8.50;99.90;;;;;;5097528;28;20035;-55
2022/11/24 03:01:39;;;;;;;14.65;2.22;;;8.50;99.90;;;;;;5091810;28;20561;-57
2022/11/24 03:04:05;;;;;;;16.30;3.83;;;8.50;99.90;;;;;;5093415;28;20031;-57
2022/11/24 03:06:30;;;;;;;16.90;3.45;;;8.60;99.90;;;;;;5091584;28;20024;-56
2022/11/24 03:08:56;;;;;;;18.02;2.80;;;8.60;99.90;;;;;;5073060;28;20841;-56
2022/11/24 03:11:21;;;;;;;17.48;2.50;;;8.60;99.90;;;;;;5091549;28;20531;-55
2022/11/24 03:13:48;;;;;;;13.90;2.22;;;8.60;99.90;;;;;;5092370;28;20020;-55
2022/11/24 03:16:13;;;;;;;15.65;2.67;;;8.60;99.90;;;;;;5093147;28;20384;-57
2022/11/24 03:18:39;;;;;;;15.20;3.10;;;8.60;99.90;;;;;;5091372;28;20468;-56
2022/11/24 03:21:05;;;;;;;14.35;2.60;;;8.70;99.90;;;;;;5091283;27;20027;-57
2022/11/24 03:23:30;;;;;;;19.17;2.97;;;8.60;99.90;;;;;;5072907;28;20489;-57
2022/11/24 03:26:09;;;;;;;17.20;2.58;;;8.60;99.90;;;;;;5091313;28;20097;-56
2022/11/24 03:28:35;;;;;;;22.10;3.72;;;8.60;99.90;;;;;;5093405;28;20023;-57
2022/11/24 03:31:01;;;;;;;12.35;2.30;;;8.60;99.90;;;;;;5091749;28;20034;-56
2022/11/24 03:33:27;;;;;;;17.73;2.97;;;8.50;99.90;;;;;;5090966;28;20398;-57
2022/11/24 03:35:52;;;;;;;13.32;2.80;;;8.50;99.90;;;;;;5091134;28;20027;-56
2022/11/24 03:38:18;;;;;;;17.77;3.00;;;8.40;99.90;;;;;;5091201;28;20543;-56
2022/11/24 03:40:43;;;;;;;14.48;2.70;;;8.40;99.90;;;;;;5096390;28;20331;-57
2022/11/24 03:43:09;;;;;;;18.80;2.78;;;8.40;99.90;;;;;;5094040;28;20064;-56
2022/11/24 03:45:34;;;;;;;18.13;3.83;;;8.40;99.90;;;;;;5093695;28;20032;-56
2022/11/24 03:48:00;;;;;;;16.42;3.42;;;8.30;99.90;;;;;;5072490;28;20043;-57
2022/11/24 03:50:26;;;;;;;17.38;2.90;;;8.30;99.90;;;;;;5091087;28;20062;-56
2022/11/24 03:52:52;;;;;;;14.63;3.22;;;8.30;99.90;;;;;;5090851;28;20497;-56
2022/11/24 03:55:18;;;;;;;15.45;2.95;;;8.40;99.90;;;;;;5090246;28;20031;-57
2022/11/24 03:57:43;;;;;;;18.13;3.78;;;8.40;99.90;;;;;;5090565;28;20074;-57
2022/11/24 04:00:10;;;;;;;16.65;2.92;;;8.40;99.90;;;;;;5091209;28;20023;-57
2022/11/24 04:02:36;;;;;;;18.25;3.90;;;8.40;99.90;;;;;;5094785;28;20031;-56
2022/11/24 04:05:01;;;;;;;16.70;3.05;;;8.40;99.90;;;;;;5086193;28;20370;-56
2022/11/24 04:07:27;;;;;;;17.58;3.05;;;8.40;99.90;;;;;;5093419;28;20024;-56
2022/11/24 04:09:52;;;;;;;17.92;3.17;;;8.40;99.90;;;;;;5090426;28;20103;-57
2022/11/24 04:15:02;;;;;;;18.30;3.10;;;8.30;99.90;;;;;;5090586;28;20089;-53
2022/11/24 04:17:27;;;;;;;18.67;2.95;;;8.40;99.90;;;;;;5091387;28;20481;-56
2022/11/24 04:19:53;;;;;;;17.52;3.22;;;8.40;99.90;;;;;;5092171;28;20024;-54
2022/11/24 04:22:19;;;;;;;12.20;2.45;;;8.40;99.90;;;;;;5090506;28;20439;-57
2022/11/24 04:24:44;;;;;;;17.30;3.35;;;8.40;99.90;;;;;;5089987;28;20042;-57
2022/11/24 04:27:10;;;;;;;17.67;2.90;;;8.40;99.90;;;;;;5090378;28;20469;-57
2022/11/24 04:29:35;;;;;;;15.18;3.63;;;8.40;99.90;;;;;;5090068;28;20028;-56
2022/11/24 04:32:01;;;;;;;16.58;3.28;;;8.50;99.90;;;;;;5090223;27;20056;-55
2022/11/24 04:34:26;;;;;;;16.73;2.97;;;8.50;99.90;;;;;;5090018;28;20016;-57
2022/11/24 04:36:52;;;;;;;18.25;3.42;;;8.50;99.90;;;;;;5073041;28;20024;-57
2022/11/24 04:39:17;;;;;;;23.00;3.63;;;8.60;99.90;;;;;;5090135;28;20103;-56
2022/11/24 04:41:43;;;;;;;19.70;3.60;;;8.60;99.90;;;;;;5089645;28;20518;-55
2022/11/24 04:44:08;;;;;;;18.83;3.25;;;8.60;99.90;;;;;;5090178;28;20070;-55
2022/11/24 04:46:34;;;;;;;16.40;2.55;;;8.70;99.90;;;;;;5089781;28;20051;-56
2022/11/24 04:49:00;;;;;;;12.68;2.30;;;8.70;99.90;;;;;;5089740;28;20024;-57
2022/11/24 04:51:26;;;;;;;15.07;2.75;;;8.80;99.90;;;;;;5092310;28;20022;-55
2022/11/24 04:53:51;;;;;;;11.60;2.03;;;8.80;99.90;;;;;;5095323;28;20443;-57
2022/11/24 04:56:17;;;;;;;17.00;2.92;;;8.90;99.90;;;;;;5089570;28;20016;-57
2022/11/24 04:58:42;;;;;;;14.32;2.28;;;8.80;99.90;;;;;;5089678;27;20043;-56
2022/11/24 05:01:08;;;;;;;11.55;2.22;;;8.90;99.90;;;;;;5089545;28;20024;-57
2022/11/24 05:03:35;;;;;;;17.20;2.60;;;8.80;99.90;;;;;;5093266;28;20052;-56
2022/11/24 05:06:01;;;;;;;16.70;3.28;;;8.80;99.90;;;;;;5092544;28;20107;-54
2022/11/24 05:08:26;;;;;;;10.13;2.30;;;8.80;99.90;;;;;;5092022;28;20463;-57
2022/11/24 05:10:52;;;;;;;12.13;2.28;;;8.80;99.90;;;;;;5089675;28;20032;-57
2022/11/24 05:13:17;;;;;;;14.23;2.60;;;8.80;99.90;;;;;;5092050;28;20082;-56
2022/11/24 05:15:43;;;;;;;16.17;2.95;;;8.80;99.90;;;;;;5089179;28;20477;-57
2022/11/24 05:18:12;;;;;;;16.83;2.70;;;8.80;99.90;;;;;;5093638;28;20510;-58
2022/11/24 05:20:38;;;;;;;9.25;1.85;;;8.70;99.90;;;;;;5089618;28;20023;-56
2022/11/24 05:23:05;;;;;;;19.45;2.88;;;8.70;99.90;;;;;;5088968;28;20030;-57
2022/11/24 05:25:32;;;;;;;9.20;2.05;;;8.70;99.90;;;;;;5089015;28;20052;-56
2022/11/24 05:28:02;;;;;;;13.02;2.05;;;8.70;99.90;;;;;;5089849;28;20036;-57
2022/11/24 05:30:29;;;;;;;7.22;1.52;;;8.60;99.90;;;;;;5089143;28;20016;-56
2022/11/24 05:32:54;;;;;;;8.15;1.02;;;8.60;99.90;;;;;;5088846;28;20093;-56
2022/11/24 05:35:20;;;;;;;8.93;1.05;;;8.60;99.90;;;;;;5089130;28;20032;-56
2022/11/24 05:37:46;;;;;;;8.82;1.98;;;8.60;99.90;;;;;;5091860;28;20473;-57
2022/11/24 05:40:12;;;;;;;7.25;1.25;;;8.60;99.90;;;;;;5089000;28;20065;-56
2022/11/24 05:42:41;;;;;;;4.53;0.95;;;8.60;99.90;;;;;;5089729;28;20024;-57
2022/11/24 05:45:12;;;;;;;6.45;1.10;;;8.60;99.90;;;;;;5094542;27;20077;-55
2022/11/24 05:47:38;;;;;;;7.20;1.35;;;8.60;99.90;;;;;;5088778;28;20094;-57
2022/11/24 05:50:05;;;;;;;5.97;1.00;;;8.50;99.90;;;;;;5088629;28;20028;-54
2022/11/24 05:52:30;;;;;;;5.28;1.05;;;8.50;99.90;;;;;;5091393;28;20065;-56
2022/11/24 05:54:56;;;;;;;8.35;1.10;;;8.50;99.90;;;;;;5070459;28;20023;-57
2022/11/24 05:57:21;;;;;;;5.55;1.02;;;8.50;99.90;;;;;;5069650;28;20546;-55
2022/11/24 05:59:47;;;;;;;3.08;1.20;;;8.50;99.90;;;;;;5088654;28;20027;-56
2022/11/24 06:02:12;;;;;;;5.00;0.93;;;8.50;99.90;;;;;;5088622;28;20103;-57
2022/11/24 06:04:38;;;;;;;5.93;1.00;;;8.50;99.90;;;;;;5091015;28;20028;-56
2022/11/24 06:07:07;;;;;;;4.05;1.13;;;8.40;99.90;;;;;;5088460;28;20286;-57
2022/11/24 06:09:36;;;;;;;3.53;0.85;;;8.50;99.90;;;;;;5091270;28;20501;-56
2022/11/24 06:12:02;;;;;;;5.45;1.23;;;8.50;99.90;;;;;;5088542;28;20024;-56
2022/11/24 06:14:27;;;;;;;4.50;1.00;;;8.40;99.90;;;;;;5088543;28;20016;-57
2022/11/24 06:16:53;;;;;;;4.72;0.75;;;8.50;99.90;;;;;;5088439;28;20512;-56
2022/11/24 06:19:18;;;;;;;7.60;1.42;;;8.40;99.90;;;;;;5090298;28;20032;-56
2022/11/24 06:21:44;;;;;;;3.08;0.77;;;8.40;99.90;;;;;;5092294;28;20028;-55
2022/11/24 06:24:09;;;;;;;4.70;0.93;;;8.40;99.90;;;;;;5092305;28;20497;-57
2022/11/24 06:26:35;;;;;;;2.92;0.70;;;8.40;99.90;;;;;;5095253;28;20418;-55
2022/11/24 06:29:00;;;;;;;5.35;1.00;;;8.40;99.90;;;;;;5092372;28;20031;-56
2022/11/24 06:31:26;;;;;;;2.10;0.70;;;8.40;99.90;;;;;;5091964;28;20040;-56
2022/11/24 06:33:52;;;;;;;5.05;1.23;;;8.40;99.90;;;;;;5092349;28;20103;-55
2022/11/24 06:36:17;;;;;;;4.78;1.00;;;8.40;99.90;;;;;;5074210;28;20534;-59
2022/11/24 06:38:43;;;;;;;2.50;0.50;;;8.40;99.90;;;;;;5092113;28;20081;-56
2022/11/24 06:41:12;;;;;;;7.53;1.02;;;8.40;99.90;;;;;;5093663;28;20030;-56
2022/11/24 06:43:37;;;;;;;6.35;0.80;;;8.40;99.90;;;;;;5106923;28;20043;-55
2022/11/24 06:46:03;;;;;;;4.22;1.00;;;8.30;99.90;;;;;;5098715;28;20054;-56
2022/11/24 06:48:30;;;;;;;7.68;1.75;;;8.30;99.90;;;;;;5094887;28;20028;-57
2022/11/24 06:51:00;;;;;;;4.72;1.17;;;8.30;99.90;;;;;;5095525;28;20103;-56
2022/11/24 06:53:28;;;;;;;5.85;1.35;;;8.30;99.90;;;;;;5095369;28;20024;-53
2022/11/24 06:56:00;;;;;;;6.47;1.55;;;8.30;99.90;;;;;;5095810;28;20026;-55
2022/11/24 06:58:25;;;;;;;3.85;1.30;;;8.40;99.90;;;;;;5095609;28;20047;-57
2022/11/24 07:00:51;;;;;;;8.23;1.98;;;8.40;99.90;;;;;;5109367;28;20039;-57
2022/11/24 07:03:18;;;;;;;5.78;1.83;;;8.40;99.90;;;;;;5089217;28;20015;-56
2022/11/24 07:05:44;;;;;;;6.57;2.25;;;8.40;99.90;;;;;;5108763;28;20024;-57
2022/11/24 07:08:10;;;;;;;9.27;2.70;;;8.40;99.90;;;;;;5095322;28;20039;-57
2022/11/24 07:10:36;;;;;;;6.50;2.75;;;8.40;99.90;;;;;;5095315;28;20491;-57
2022/11/24 07:13:04;;;;;;;7.28;2.50;;;8.40;99.90;;;;;;5094939;28;20040;-57
2022/11/24 07:15:30;;;;;;;8.27;2.70;;;8.50;99.90;;;;;;5108052;28;20024;-57
2022/11/24 07:17:55;;;;;;;5.80;2.55;;;8.50;99.90;;;;;;5095197;28;20043;-56
2022/11/24 07:20:21;;;;;;;6.20;2.50;;;8.50;99.90;;;;;;5095199;28;20074;-57
2022/11/24 07:22:46;;;;;;;6.03;3.08;;;8.50;99.90;;;;;;5094786;28;20020;-56
2022/11/24 07:25:13;;;;;;;10.07;3.13;;;8.50;99.90;;;;;;5108769;28;20062;-56
2022/11/24 07:27:39;;;;;;;9.30;3.30;;;8.50;99.90;;;;;;5102257;28;20069;-56
2022/11/24 07:30:06;;;;;;;10.55;2.90;;;8.50;99.90;;;;;;5100075;28;20485;-57
2022/11/24 07:32:31;;;;;;;6.25;3.05;;;8.50;99.90;;;;;;5095191;28;20064;-56
2022/11/24 07:34:57;;;;;;;5.93;2.67;;;8.60;99.90;;;;;;5108798;28;20062;-56
2022/11/24 07:37:23;;;;;;;6.97;2.08;;;8.60;99.90;;;;;;5088124;28;20016;-53
2022/11/24 07:39:48;;;;;;;7.13;2.40;;;8.60;99.90;;;;;;5101996;28;20098;-57
2022/11/24 07:42:14;;;;;;;9.60;3.20;;;8.70;99.90;;;;;;5094984;28;20115;-57
2022/11/24 07:44:39;;;;;;;6.65;2.30;;;8.70;99.90;;;;;;5101469;28;20038;-57
2022/11/24 07:47:05;;;;;;;5.82;2.30;;;8.70;99.90;;;;;;5094768;28;20024;-57
2022/11/24 07:49:30;;;;;;;5.22;2.22;;;8.70;99.90;;;;;;5103167;28;20016;-57
2022/11/24 07:51:56;;;;;;;4.28;2.17;;;8.70;99.90;;;;;;5090789;28;20028;-55
2022/11/24 07:54:21;;;;;;;8.45;3.03;;;8.70;99.90;;;;;;5106378;28;20023;-58
2022/11/24 07:56:47;;;;;;;5.82;2.53;;;8.70;99.90;;;;;;5110871;28;20520;-56
2022/11/24 07:59:13;;;;;;;6.53;2.08;;;8.70;99.90;;;;;;5113256;28;20035;-57
2022/11/24 08:01:39;;;;;;;6.80;2.13;;;8.70;99.90;;;;;;5109974;28;20479;-55
2022/11/24 08:04:05;;;;;;;6.55;2.40;;;8.70;99.90;;;;;;5107556;27;20400;-56
2022/11/24 08:06:30;;;;;;;7.80;2.38;;;8.70;99.90;;;;;;5105935;28;20031;-56
2022/11/24 08:08:57;;;;;;;6.78;1.90;;;8.70;99.90;;;;;;5094261;28;20560;-56
2022/11/24 08:11:23;;;;;;;7.95;2.05;;;8.70;99.90;;;;;;5094500;28;20432;-57
2022/11/24 08:13:48;;;;;;;4.47;1.98;;;8.70;99.90;;;;;;5107539;28;20016;-56
2022/11/24 08:16:16;;;;;;;7.07;2.20;;;8.70;99.90;;;;;;5094476;28;20095;-56
2022/11/24 08:18:43;;;;;;;6.53;2.22;;;8.70;99.90;;;;;;5094097;28;20481;-56
2022/11/24 08:21:12;;;;;;;6.93;1.88;;;8.70;99.90;;;;;;5094303;28;20028;-57
2022/11/24 08:23:38;;;;;;;5.22;1.90;;;8.70;99.90;;;;;;5094076;28;20024;-57
2022/11/24 08:26:12;;;;;;;6.25;1.45;;;8.70;99.90;;;;;;5095634;28;20089;-56
2022/11/24 08:28:38;;;;;;;7.28;2.00;;;8.70;99.90;;;;;;5104251;28;20023;-56
2022/11/24 08:31:08;;;;;;;4.35;1.13;;;8.70;99.90;;;;;;5093829;28;20074;-55
2022/11/24 08:33:35;;;;;;;6.70;1.45;;;8.80;99.90;;;;;;5094255;28;20513;-56
2022/11/24 08:36:09;;;;;;;5.63;1.63;;;8.80;99.90;;;;;;5095037;28;20106;-56
2022/11/24 08:38:35;;;;;;;5.20;1.38;;;8.80;99.90;;;;;;5093565;28;20079;-56
2022/11/24 08:41:06;;;;;;;5.63;1.85;;;8.80;99.90;;;;;;5098576;28;20065;-56
2022/11/24 08:43:32;;;;;;;5.78;1.50;;;8.80;99.90;;;;;;5090800;28;20027;-56
2022/11/24 08:46:02;;;;;;;7.05;1.40;;;8.90;99.90;;;;;;5097790;28;20028;-56
2022/11/24 08:48:28;;;;;;;8.10;1.92;;;8.90;99.90;;;;;;5105020;27;20031;-56
2022/11/24 08:50:53;;;;;;;4.57;1.13;;;8.90;99.90;;;;;;5109225;28;20016;-55
2022/11/24 08:53:19;;;;;;;6.55;1.13;;;8.90;99.90;;;;;;5093820;28;20480;-57
2022/11/24 08:55:44;;;;;;;4.45;1.13;;;9.00;99.90;;;;;;5074242;27;20081;-54
2022/11/24 08:58:10;;;;;;;6.25;1.60;;;9.00;99.90;;;;;;5108570;28;20024;-56
2022/11/24 09:00:35;;;;;;;7.93;2.45;;;9.10;99.90;;;;;;5081998;28;20023;-57
2022/11/24 09:03:01;;;;;;;9.23;1.73;;;9.20;99.90;;;;;;5100017;28;20083;-54
2022/11/24 09:05:26;;;;;;;5.05;0.90;;;9.20;99.90;;;;;;5106095;28;20491;-57
2022/11/24 09:07:52;;;;;;;8.68;1.38;;;9.30;99.90;;;;;;5106230;27;20019;-57
2022/11/24 09:10:18;;;;;;;5.00;1.25;;;9.30;99.90;;;;;;5110480;28;20110;-56
2022/11/24 09:12:44;;;;;;;5.55;1.67;;;9.40;99.90;;;;;;5111548;28;20431;-56
2022/11/24 09:15:11;;;;;;;6.32;1.00;;;9.50;99.90;;;;;;5103854;28;20026;-57
2022/11/24 09:17:36;;;;;;;8.55;1.27;;;9.50;99.90;;;;;;5109332;28;20015;-56
2022/11/24 09:20:03;;;;;;;10.52;1.60;;;9.60;99.90;;;;;;5101812;28;20030;-56
2022/11/24 09:22:30;;;;;;;6.70;1.15;;;9.60;99.90;;;;;;5106436;28;20028;-55
2022/11/24 09:24:55;;;;;;;8.30;1.95;;;9.60;99.90;;;;;;5100923;28;20022;-58
2022/11/24 09:27:21;;;;;;;4.93;1.10;;;9.60;99.90;;;;;;5092861;28;20024;-56
2022/11/24 09:29:46;;;;;;;3.15;1.00;;;9.60;99.90;;;;;;5106109;28;20034;-56
2022/11/24 09:32:12;;;;;;;6.68;1.33;;;9.70;99.90;;;;;;5112634;28;20565;-54
2022/11/24 09:34:37;;;;;;;8.90;1.52;;;9.90;99.90;;;;;;5102214;28;20431;-56
2022/11/24 09:37:03;;;;;;;7.30;1.63;;;9.90;99.90;;;;;;5107888;28;20042;-56
2022/11/24 09:39:28;;;;;;;6.07;1.70;;;9.90;99.90;;;;;;5101279;28;20534;-56
2022/11/24 09:42:14;;;;;;;5.28;1.30;;;10.00;99.90;;;;;;5095449;28;20039;-57
2022/11/24 09:45:18;;;;;;;6.57;1.50;;;10.10;99.90;;;;;;5088425;28;20480;-58
2022/11/24 09:48:03;;;;;;;6.45;1.20;;;10.40;99.90;;;;;;5094023;28;20039;-54
2022/11/24 09:50:32;;;;;;;7.55;1.25;;;10.40;99.90;;;;;;5092249;28;20016;-57
2022/11/24 09:53:30;;;;;;;8.82;1.77;;;10.50;99.90;;;;;;5100972;28;20089;-57
2022/11/24 09:56:01;;;;;;;9.77;1.50;;;10.70;99.90;;;;;;5093933;28;20025;-55
2022/11/24 09:58:34;;;;;;;7.88;1.65;;;10.90;99.90;;;;;;5108820;28;20030;-57
2022/11/24 10:01:03;;;;;;;8.25;2.03;;;11.40;99.90;;;;;;5095058;28;20028;-55
2022/11/24 10:03:50;;;;;;;8.48;1.30;;;11.80;99.90;;;;;;5111828;28;20421;-56
2022/11/24 10:06:30;;;;;;;6.05;1.38;;;12.20;99.90;;;;;;5101974;28;20022;-57
2022/11/24 10:09:04;;;;;;;7.45;1.33;;;12.70;99.90;;;;;;5092358;28;20435;-57
2022/11/24 10:11:50;;;;;;;8.65;1.55;;;12.80;99.90;;;;;;5074817;28;20111;-56
2022/11/24 10:14:29;;;;;;;7.57;1.75;;;12.90;99.90;;;;;;5092189;28;20023;-57
2022/11/24 10:17:20;;;;;;;7.23;1.60;;;13.00;99.90;;;;;;5093344;28;20020;-57
2022/11/24 10:20:07;;;;;;;6.57;2.13;;;13.60;99.80;;;;;;5074532;28;20438;-57
2022/11/24 10:22:52;;;;;;;7.18;2.40;;;14.10;98.80;;;;;;5092999;28;20118;-57
2022/11/24 10:25:24;;;;;;;12.07;1.58;;;14.10;97.10;;;;;;5093265;28;20016;-57
2022/11/24 10:28:00;;;;;;;7.70;1.65;;;14.20;96.50;;;;;;5091989;28;20019;-57
2022/11/24 10:30:26;;;;;;;6.18;1.60;;;14.40;96.10;;;;;;5103959;28;20024;-56
2022/11/24 10:32:58;;;;;;;5.30;1.52;;;14.80;95.90;;;;;;5094252;28;20051;-57
2022/11/24 10:35:29;;;;;;;5.78;1.65;;;15.00;95.10;;;;;;5093166;28;20027;-57
2022/11/24 10:38:05;;;;;;;7.68;1.65;;;15.20;93.90;;;;;;5105345;28;20546;-57
2022/11/24 10:40:44;;;;;;;11.73;2.15;;;15.30;93.30;;;;;;5092644;28;20532;-58
2022/11/24 10:43:11;;;;;;;6.73;1.40;;;15.60;92.40;;;;;;5097194;28;20089;-57
2022/11/24 10:45:38;;;;;;;9.35;2.13;;;16.20;91.30;;;;;;5112285;28;20392;-57
2022/11/24 10:48:17;;;;;;;10.45;2.90;;;16.60;90.30;;;;;;5074052;28;20018;-57
2022/11/24 10:50:43;;;;;;;6.90;1.30;;;16.50;89.20;;;;;;5091975;28;20020;-57
2022/11/24 10:53:23;;;;;;;7.72;1.52;;;16.30;88.70;;;;;;5092239;28;20038;-57
2022/11/24 10:55:54;;;;;;;8.85;1.90;;;16.10;89.40;;;;;;5092256;28;20557;-57
2022/11/24 10:58:32;;;;;;;9.30;2.20;;;16.00;89.30;;;;;;5092619;28;20024;-57
2022/11/24 11:01:20;;;;;;;9.60;2.67;;;16.20;89.80;;;;;;5080364;28;20023;-57
2022/11/24 11:03:45;;;;;;;9.00;2.10;;;16.50;87.70;;;;;;5101905;28;20043;-57
2022/11/24 11:06:21;;;;;;;10.10;2.72;;;16.80;85.80;;;;;;5095467;28;20016;-57
2022/11/24 11:08:47;;;;;;;10.07;2.35;;;17.20;84.80;;;;;;5095803;28;20366;-57
2022/11/24 11:11:20;;;;;;;9.95;2.10;;;17.40;82.80;;;;;;5095725;28;20518;-57
2022/11/24 11:13:54;;;;;;;9.48;2.90;;;17.70;81.60;;;;;;5083204;28;20027;-57
2022/11/24 11:16:40;;;;;;;8.52;2.53;;;18.20;79.60;;;;;;5100982;28;20016;-58
2022/11/24 11:19:38;;;;;;;8.35;2.20;;;18.70;77.50;;;;;;5077541;28;20056;-58
2022/11/24 11:22:10;;;;;;;10.43;2.55;;;19.20;76.10;;;;;;5095847;28;20048;-57
2022/11/24 11:24:37;;;;;;;5.85;1.80;;;19.70;73.30;;;;;;5095489;28;20020;-57
2022/11/24 11:27:26;;;;;;;7.95;1.77;;;20.00;72.30;;;;;;5105199;28;20031;-57
2022/11/24 11:29:52;;;;;;;7.63;2.35;;;20.50;71.40;;;;;;5095020;28;20031;-58
2022/11/24 11:32:26;;;;;;;7.38;2.50;;;20.90;70.10;;;;;;5108349;28;20122;-57
2022/11/24 11:34:56;;;;;;;6.95;2.47;;;21.80;67.40;;;;;;5110311;27;20030;-58
2022/11/24 11:37:26;;;;;;;9.98;2.50;;;22.60;64.70;;;;;;5095380;28;20065;-58
2022/11/24 11:39:54;;;;;;;6.95;2.30;;;23.10;63.50;;;;;;5095535;28;20130;-58
2022/11/24 11:42:31;;;;;;;8.10;2.20;;;23.90;60.80;;;;;;5098495;28;20103;-58
2022/11/24 11:45:01;;;;;;;6.45;2.13;;;24.90;59.20;;;;;;5106403;28;20028;-58
2022/11/24 11:47:32;;;;;;;7.97;2.40;;;25.60;55.10;;;;;;5095083;28;20032;-58
2022/11/24 11:49:58;;;;;;;6.95;2.40;;;26.20;55.00;;;;;;5086624;28;20024;-58
2022/11/24 11:52:43;;;;;;;5.13;2.08;;;27.20;53.70;;;;;;5094532;28;20028;-58
2022/11/24 11:55:29;;;;;;;5.93;2.05;;;28.10;52.70;;;;;;5104147;28;20382;-58
2022/11/24 11:58:16;;;;;;;8.15;2.47;;;28.80;49.90;;;;;;5100426;28;20031;-58
2022/11/24 12:00:53;;;;;;;7.50;2.58;;;28.80;47.10;;;;;;5090055;28;20056;-58
2022/11/24 12:04:01;;;;;;;8.52;2.80;;;28.50;47.00;;;;;;5107107;28;20545;-58
2022/11/24 12:06:29;;;;;;;8.25;2.75;;;28.90;46.70;;;;;;5056130;28;20075;-58
2022/11/24 12:09:28;;;;;;;7.40;2.83;;;29.00;44.50;;;;;;5111251;28;20051;-58
2022/11/24 12:12:30;;;;;;;5.53;2.00;;;28.70;44.80;;;;;;5113078;28;20027;-58
2022/11/24 12:15:17;;;;;;;6.28;2.03;;;28.60;45.50;;;;;;5109930;28;20027;-58
2022/11/24 12:17:55;;;;;;;5.43;2.25;;;28.90;44.80;;;;;;5108866;28;20031;-58
2022/11/24 12:20:38;;;;;;;8.90;2.85;;;28.80;44.30;;;;;;5110764;27;20059;-58
2022/11/24 12:23:18;;;;;;;7.60;2.30;;;28.70;43.80;;;;;;5108863;28;20031;-58
2022/11/24 12:25:49;;;;;;;6.55;2.20;;;29.00;44.10;;;;;;5109358;28;20023;-58
2022/11/24 12:28:37;;;;;;;6.68;2.50;;;29.40;43.60;;;;;;5102057;28;20027;-58
2022/11/24 12:31:10;;;;;;;8.23;2.33;;;29.70;43.80;;;;;;5105580;28;20020;-58
2022/11/24 12:33:57;;;;;;;6.35;1.90;;;30.10;43.10;;;;;;5083126;28;20126;-58
2022/11/24 12:36:40;;;;;;;7.30;2.33;;;30.10;43.30;;;;;;5091338;27;20059;-58
2022/11/24 12:39:19;;;;;;;9.63;2.50;;;30.00;42.40;;;;;;5112657;27;20538;-59
2022/11/24 12:42:20;;;;;;;9.75;2.88;;;30.10;41.90;;;;;;5108544;27;20047;-59
2022/11/24 12:44:55;;;;;;;6.82;2.45;;;30.10;41.40;;;;;;5106962;28;20052;-58
2022/11/24 12:47:28;;;;;;;8.02;2.85;;;29.30;41.10;;;;;;5086102;28;20024;-59
2022/11/24 12:50:08;;;;;;;6.10;2.03;;;28.80;41.60;;;;;;5107474;28;20030;-59
2022/11/24 12:53:02;;;;;;;7.43;2.45;;;28.90;42.40;;;;;;5111384;28;20026;-58
2022/11/24 12:55:31;;;;;;;6.07;2.60;;;29.20;41.60;;;;;;5110904;27;20032;-58
2022/11/24 12:58:09;;;;;;;7.22;2.53;;;29.30;41.20;;;;;;5121705;27;20234;-58
2022/11/24 13:01:04;;;;;;;7.50;2.03;;;28.70;41.60;;;;;;5102938;28;20028;-59
2022/11/24 13:03:41;;;;;;;7.82;2.63;;;28.80;42.20;;;;;;5107075;28;20103;-59
2022/11/24 13:06:14;;;;;;;5.85;2.40;;;28.30;41.80;;;;;;5110417;28;20015;-59